sensor_id;sensor_type;location;lat;lon;timestamp;temperature;humidity
71291;DHT22;59073;51.994;4.448;2023-08-20T00:01:05;19.67;75.46
71291;DHT22;59073;51.994;4.448;2023-08-20T00:03:31;19.74;75.24
71291;DHT22;59073;51.994;4.448;2023-08-20T00:05:57;19.78;75.08
71291;DHT22;59073;51.994;4.448;2023-08-20T00:08:23;19.85;75.03
71291;DHT22;59073;51.994;4.448;2023-08-20T00:10:48;19.83;75.12
71291;DHT22;59073;51.994;4.448;2023-08-20T00:13:13;19.81;75.19
71291;DHT22;59073;51.994;4.448;2023-08-20T00:15:39;19.81;75.21
71291;DHT22;59073;51.994;4.448;2023-08-20T00:18:05;19.80;75.26
71291;DHT22;59073;51.994;4.448;2023-08-20T00:20:30;19.83;75.38
71291;DHT22;59073;51.994;4.448;2023-08-20T00:22:56;19.85;75.30
71291;DHT22;59073;51.994;4.448;2023-08-20T00:25:22;19.87;75.36
71291;DHT22;59073;51.994;4.448;2023-08-20T00:27:47;19.81;75.55
71291;DHT22;59073;51.994;4.448;2023-08-20T00:30:13;19.81;75.65
71291;DHT22;59073;51.994;4.448;2023-08-20T00:32:39;19.84;75.62
71291;DHT22;59073;51.994;4.448;2023-08-20T00:35:05;19.81;76.01
71291;DHT22;59073;51.994;4.448;2023-08-20T00:37:32;19.75;76.28
71291;DHT22;59073;51.994;4.448;2023-08-20T00:39:58;19.69;76.76
71291;DHT22;59073;51.994;4.448;2023-08-20T00:42:24;19.69;77.07
71291;DHT22;59073;51.994;4.448;2023-08-20T00:44:51;19.74;76.95
71291;DHT22;59073;51.994;4.448;2023-08-20T00:47:18;19.71;76.50
71291;DHT22;59073;51.994;4.448;2023-08-20T00:49:45;19.56;77.00
71291;DHT22;59073;51.994;4.448;2023-08-20T00:52:12;19.45;77.39
71291;DHT22;59073;51.994;4.448;2023-08-20T00:54:40;19.36;77.91
71291;DHT22;59073;51.994;4.448;2023-08-20T00:57:06;19.42;77.86
71291;DHT22;59073;51.994;4.448;2023-08-20T00:59:32;19.49;77.71
71291;DHT22;59073;51.994;4.448;2023-08-20T01:01:59;19.64;77.65
71291;DHT22;59073;51.994;4.448;2023-08-20T01:04:25;19.74;77.60
71291;DHT22;59073;51.994;4.448;2023-08-20T01:07:14;19.74;77.41
71291;DHT22;59073;51.994;4.448;2023-08-20T01:09:59;19.74;77.32
71291;DHT22;59073;51.994;4.448;2023-08-20T01:12:29;19.83;77.24
71291;DHT22;59073;51.994;4.448;2023-08-20T01:14:54;19.87;77.08
71291;DHT22;59073;51.994;4.448;2023-08-20T01:17:20;19.91;77.09
71291;DHT22;59073;51.994;4.448;2023-08-20T01:19:45;19.94;77.05
71291;DHT22;59073;51.994;4.448;2023-08-20T01:25:04;19.97;76.86
71291;DHT22;59073;51.994;4.448;2023-08-20T01:30:18;19.97;76.59
71291;DHT22;59073;51.994;4.448;2023-08-20T01:32:45;19.94;76.62
71291;DHT22;59073;51.994;4.448;2023-08-20T01:35:12;19.87;77.01
71291;DHT22;59073;51.994;4.448;2023-08-20T01:37:39;19.60;78.82
71291;DHT22;59073;51.994;4.448;2023-08-20T01:40:06;19.64;79.05
71291;DHT22;59073;51.994;4.448;2023-08-20T01:42:33;19.71;78.97
71291;DHT22;59073;51.994;4.448;2023-08-20T01:44:58;19.69;78.85
71291;DHT22;59073;51.994;4.448;2023-08-20T01:47:24;19.43;79.77
71291;DHT22;59073;51.994;4.448;2023-08-20T01:49:49;19.29;80.70
71291;DHT22;59073;51.994;4.448;2023-08-20T01:52:15;19.27;80.48
71291;DHT22;59073;51.994;4.448;2023-08-20T01:54:40;19.30;80.26
71291;DHT22;59073;51.994;4.448;2023-08-20T01:57:06;19.32;79.87
71291;DHT22;59073;51.994;4.448;2023-08-20T01:59:31;19.37;79.50
71291;DHT22;59073;51.994;4.448;2023-08-20T02:01:56;19.37;79.31
71291;DHT22;59073;51.994;4.448;2023-08-20T02:04:22;19.37;79.20
71291;DHT22;59073;51.994;4.448;2023-08-20T02:06:47;19.34;79.03
71291;DHT22;59073;51.994;4.448;2023-08-20T02:09:13;19.33;79.10
71291;DHT22;59073;51.994;4.448;2023-08-20T02:11:38;19.30;79.22
71291;DHT22;59073;51.994;4.448;2023-08-20T02:14:03;19.27;79.17
71291;DHT22;59073;51.994;4.448;2023-08-20T02:16:29;19.30;79.07
71291;DHT22;59073;51.994;4.448;2023-08-20T02:18:54;19.32;79.20
71291;DHT22;59073;51.994;4.448;2023-08-20T02:21:20;19.30;78.75
71291;DHT22;59073;51.994;4.448;2023-08-20T02:23:45;19.16;78.23
71291;DHT22;59073;51.994;4.448;2023-08-20T02:26:11;19.02;77.73
71291;DHT22;59073;51.994;4.448;2023-08-20T02:28:36;18.95;78.03
71291;DHT22;59073;51.994;4.448;2023-08-20T02:31:04;18.96;78.45
71291;DHT22;59073;51.994;4.448;2023-08-20T02:33:30;18.95;78.93
71291;DHT22;59073;51.994;4.448;2023-08-20T02:36:00;18.89;79.04
71291;DHT22;59073;51.994;4.448;2023-08-20T02:38:26;18.89;79.06
71291;DHT22;59073;51.994;4.448;2023-08-20T02:40:51;18.91;78.79
71291;DHT22;59073;51.994;4.448;2023-08-20T02:43:17;18.89;78.56
71291;DHT22;59073;51.994;4.448;2023-08-20T02:45:43;18.87;79.28
71291;DHT22;59073;51.994;4.448;2023-08-20T02:48:09;18.89;79.49
71291;DHT22;59073;51.994;4.448;2023-08-20T02:50:35;18.91;79.63
71291;DHT22;59073;51.994;4.448;2023-08-20T02:53:00;18.98;79.13
71291;DHT22;59073;51.994;4.448;2023-08-20T02:55:25;18.92;79.05
71291;DHT22;59073;51.994;4.448;2023-08-20T02:57:51;18.72;79.51
71291;DHT22;59073;51.994;4.448;2023-08-20T03:00:16;18.57;79.90
71291;DHT22;59073;51.994;4.448;2023-08-20T03:02:42;18.60;79.81
71291;DHT22;59073;51.994;4.448;2023-08-20T03:05:09;18.60;79.67
71291;DHT22;59073;51.994;4.448;2023-08-20T03:07:35;18.62;79.44
71291;DHT22;59073;51.994;4.448;2023-08-20T03:10:00;18.52;79.56
71291;DHT22;59073;51.994;4.448;2023-08-20T03:12:26;18.41;79.74
71291;DHT22;59073;51.994;4.448;2023-08-20T03:14:51;18.33;79.86
71291;DHT22;59073;51.994;4.448;2023-08-20T03:17:16;18.33;79.88
71291;DHT22;59073;51.994;4.448;2023-08-20T03:19:57;18.31;79.82
71291;DHT22;59073;51.994;4.448;2023-08-20T03:22:25;18.33;79.64
71291;DHT22;59073;51.994;4.448;2023-08-20T03:24:51;18.37;79.55
71291;DHT22;59073;51.994;4.448;2023-08-20T03:27:17;18.37;79.51
71291;DHT22;59073;51.994;4.448;2023-08-20T03:29:43;18.31;79.34
71291;DHT22;59073;51.994;4.448;2023-08-20T03:32:09;18.30;79.42
71291;DHT22;59073;51.994;4.448;2023-08-20T03:34:35;18.33;79.59
71291;DHT22;59073;51.994;4.448;2023-08-20T03:37:01;18.37;79.87
71291;DHT22;59073;51.994;4.448;2023-08-20T03:39:27;18.37;80.12
71291;DHT22;59073;51.994;4.448;2023-08-20T03:41:52;18.38;80.10
71291;DHT22;59073;51.994;4.448;2023-08-20T03:44:18;18.37;79.96
71291;DHT22;59073;51.994;4.448;2023-08-20T03:46:43;18.36;79.92
71291;DHT22;59073;51.994;4.448;2023-08-20T03:49:09;18.33;80.00
71291;DHT22;59073;51.994;4.448;2023-08-20T03:51:34;18.30;79.91
71291;DHT22;59073;51.994;4.448;2023-08-20T03:54:00;18.29;79.93
71291;DHT22;59073;51.994;4.448;2023-08-20T03:56:25;18.20;80.01
71291;DHT22;59073;51.994;4.448;2023-08-20T03:58:50;18.13;79.87
71291;DHT22;59073;51.994;4.448;2023-08-20T04:01:16;18.04;80.03
71291;DHT22;59073;51.994;4.448;2023-08-20T04:03:41;17.94;80.34
71291;DHT22;59073;51.994;4.448;2023-08-20T04:06:07;17.93;80.46
71291;DHT22;59073;51.994;4.448;2023-08-20T04:08:32;17.92;81.22
71291;DHT22;59073;51.994;4.448;2023-08-20T04:10:58;17.85;82.11
71291;DHT22;59073;51.994;4.448;2023-08-20T04:13:23;17.80;82.42
71291;DHT22;59073;51.994;4.448;2023-08-20T04:15:48;17.82;82.01
71291;DHT22;59073;51.994;4.448;2023-08-20T04:18:14;17.80;81.55
71291;DHT22;59073;51.994;4.448;2023-08-20T04:20:39;17.78;81.21
71291;DHT22;59073;51.994;4.448;2023-08-20T04:23:05;17.76;81.48
71291;DHT22;59073;51.994;4.448;2023-08-20T04:25:30;17.82;81.50
71291;DHT22;59073;51.994;4.448;2023-08-20T04:27:56;17.86;81.33
71291;DHT22;59073;51.994;4.448;2023-08-20T04:30:21;17.85;81.31
71291;DHT22;59073;51.994;4.448;2023-08-20T04:32:47;17.86;81.24
71291;DHT22;59073;51.994;4.448;2023-08-20T04:35:12;17.82;80.75
71291;DHT22;59073;51.994;4.448;2023-08-20T04:37:37;17.69;80.85
71291;DHT22;59073;51.994;4.448;2023-08-20T04:40:03;17.62;81.39
71291;DHT22;59073;51.994;4.448;2023-08-20T04:42:33;17.51;81.80
71291;DHT22;59073;51.994;4.448;2023-08-20T04:44:58;17.48;82.00
71291;DHT22;59073;51.994;4.448;2023-08-20T04:47:24;17.49;82.43
71291;DHT22;59073;51.994;4.448;2023-08-20T04:49:49;17.62;82.44
71291;DHT22;59073;51.994;4.448;2023-08-20T04:52:14;17.83;82.14
71291;DHT22;59073;51.994;4.448;2023-08-20T04:54:40;18.16;81.95
71291;DHT22;59073;51.994;4.448;2023-08-20T04:57:05;18.61;80.94
71291;DHT22;59073;51.994;4.448;2023-08-20T04:59:31;19.08;79.96
71291;DHT22;59073;51.994;4.448;2023-08-20T05:01:56;19.56;79.11
71291;DHT22;59073;51.994;4.448;2023-08-20T05:04:22;19.97;77.86
71291;DHT22;59073;51.994;4.448;2023-08-20T05:06:48;20.41;76.34
71291;DHT22;59073;51.994;4.448;2023-08-20T05:09:14;20.93;75.95
71291;DHT22;59073;51.994;4.448;2023-08-20T05:11:41;21.30;73.35
71291;DHT22;59073;51.994;4.448;2023-08-20T05:14:06;21.74;72.03
71291;DHT22;59073;51.994;4.448;2023-08-20T05:16:31;22.23;70.84
71291;DHT22;59073;51.994;4.448;2023-08-20T05:18:57;22.75;69.33
71291;DHT22;59073;51.994;4.448;2023-08-20T05:21:22;23.04;67.59
71291;DHT22;59073;51.994;4.448;2023-08-20T05:23:48;23.31;65.92
71291;DHT22;59073;51.994;4.448;2023-08-20T05:26:13;23.21;65.45
71291;DHT22;59073;51.994;4.448;2023-08-20T05:28:39;23.38;64.91
71291;DHT22;59073;51.994;4.448;2023-08-20T05:31:04;23.67;64.83
71291;DHT22;59073;51.994;4.448;2023-08-20T05:33:29;23.92;63.44
71291;DHT22;59073;51.994;4.448;2023-08-20T05:35:55;24.20;63.19
71291;DHT22;59073;51.994;4.448;2023-08-20T05:38:20;24.57;62.30
71291;DHT22;59073;51.994;4.448;2023-08-20T05:40:46;24.88;61.32
71291;DHT22;59073;51.994;4.448;2023-08-20T05:43:11;25.13;61.16
71291;DHT22;59073;51.994;4.448;2023-08-20T05:45:36;25.39;60.72
71291;DHT22;59073;51.994;4.448;2023-08-20T05:48:02;25.75;60.51
71291;DHT22;59073;51.994;4.448;2023-08-20T05:50:27;26.24;59.17
71291;DHT22;59073;51.994;4.448;2023-08-20T05:52:53;26.46;58.59
71291;DHT22;59073;51.994;4.448;2023-08-20T05:55:18;26.55;58.01
71291;DHT22;59073;51.994;4.448;2023-08-20T05:57:44;26.83;57.71
71291;DHT22;59073;51.994;4.448;2023-08-20T06:00:11;27.06;57.67
71291;DHT22;59073;51.994;4.448;2023-08-20T06:02:37;27.50;56.39
71291;DHT22;59073;51.994;4.448;2023-08-20T06:05:03;27.85;55.70
71291;DHT22;59073;51.994;4.448;2023-08-20T06:07:30;28.01;55.58
71291;DHT22;59073;51.994;4.448;2023-08-20T06:09:56;28.26;54.88
71291;DHT22;59073;51.994;4.448;2023-08-20T06:12:22;28.61;54.62
71291;DHT22;59073;51.994;4.448;2023-08-20T06:14:48;28.57;54.47
71291;DHT22;59073;51.994;4.448;2023-08-20T06:17:13;28.60;54.43
71291;DHT22;59073;51.994;4.448;2023-08-20T06:19:39;28.81;54.63
71291;DHT22;59073;51.994;4.448;2023-08-20T06:22:04;29.02;53.76
71291;DHT22;59073;51.994;4.448;2023-08-20T06:24:30;29.31;52.94
71291;DHT22;59073;51.994;4.448;2023-08-20T06:26:55;29.69;52.73
71291;DHT22;59073;51.994;4.448;2023-08-20T06:29:20;30.03;51.98
71291;DHT22;59073;51.994;4.448;2023-08-20T06:31:47;30.13;51.45
71291;DHT22;59073;51.994;4.448;2023-08-20T06:34:14;30.25;51.07
71291;DHT22;59073;51.994;4.448;2023-08-20T06:36:39;30.28;51.15
71291;DHT22;59073;51.994;4.448;2023-08-20T06:39:05;30.40;50.84
71291;DHT22;59073;51.994;4.448;2023-08-20T06:41:30;30.20;51.58
71291;DHT22;59073;51.994;4.448;2023-08-20T06:43:55;30.09;52.01
71291;DHT22;59073;51.994;4.448;2023-08-20T06:46:21;29.94;52.62
71291;DHT22;59073;51.994;4.448;2023-08-20T06:48:46;29.84;52.58
71291;DHT22;59073;51.994;4.448;2023-08-20T06:51:13;29.59;53.53
71291;DHT22;59073;51.994;4.448;2023-08-20T06:53:39;29.15;54.39
71291;DHT22;59073;51.994;4.448;2023-08-20T06:56:07;28.37;55.94
71291;DHT22;59073;51.994;4.448;2023-08-20T06:58:33;27.38;59.54
71291;DHT22;59073;51.994;4.448;2023-08-20T07:00:59;26.62;60.96
71291;DHT22;59073;51.994;4.448;2023-08-20T07:03:37;25.97;63.07
71291;DHT22;59073;51.994;4.448;2023-08-20T07:06:03;25.94;63.30
71291;DHT22;59073;51.994;4.448;2023-08-20T07:08:28;25.61;64.45
71291;DHT22;59073;51.994;4.448;2023-08-20T07:10:54;25.61;64.95
71291;DHT22;59073;51.994;4.448;2023-08-20T07:13:19;25.75;64.91
71291;DHT22;59073;51.994;4.448;2023-08-20T07:15:45;25.75;64.02
71291;DHT22;59073;51.994;4.448;2023-08-20T07:18:10;25.61;65.60
71291;DHT22;59073;51.994;4.448;2023-08-20T07:20:39;25.53;64.68
71291;DHT22;59073;51.994;4.448;2023-08-20T07:23:04;25.40;65.37
71291;DHT22;59073;51.994;4.448;2023-08-20T07:25:30;25.32;66.07
71291;DHT22;59073;51.994;4.448;2023-08-20T07:27:55;25.36;65.50
71291;DHT22;59073;51.994;4.448;2023-08-20T07:30:25;25.54;65.03
71291;DHT22;59073;51.994;4.448;2023-08-20T07:32:50;25.66;64.93
71291;DHT22;59073;51.994;4.448;2023-08-20T07:35:16;25.91;64.08
71291;DHT22;59073;51.994;4.448;2023-08-20T07:37:41;26.21;63.43
71291;DHT22;59073;51.994;4.448;2023-08-20T07:40:07;26.32;63.04
71291;DHT22;59073;51.994;4.448;2023-08-20T07:42:33;26.35;62.77
71291;DHT22;59073;51.994;4.448;2023-08-20T07:44:58;26.35;62.86
71291;DHT22;59073;51.994;4.448;2023-08-20T07:47:23;26.51;62.60
71291;DHT22;59073;51.994;4.448;2023-08-20T07:49:49;26.68;61.99
71291;DHT22;59073;51.994;4.448;2023-08-20T07:52:14;26.76;62.73
71291;DHT22;59073;51.994;4.448;2023-08-20T07:54:40;26.91;60.97
71291;DHT22;59073;51.994;4.448;2023-08-20T07:57:05;26.80;62.40
71291;DHT22;59073;51.994;4.448;2023-08-20T07:59:31;26.76;62.30
71291;DHT22;59073;51.994;4.448;2023-08-20T08:01:56;27.00;61.04
71291;DHT22;59073;51.994;4.448;2023-08-20T08:04:21;26.99;61.74
71291;DHT22;59073;51.994;4.448;2023-08-20T08:06:47;27.26;60.82
71291;DHT22;59073;51.994;4.448;2023-08-20T08:09:28;27.47;59.86
71291;DHT22;59073;51.994;4.448;2023-08-20T08:11:54;27.06;60.64
71291;DHT22;59073;51.994;4.448;2023-08-20T08:14:20;27.23;61.69
71291;DHT22;59073;51.994;4.448;2023-08-20T08:16:46;27.45;60.13
71291;DHT22;59073;51.994;4.448;2023-08-20T08:19:12;27.35;59.75
71291;DHT22;59073;51.994;4.448;2023-08-20T08:21:38;27.44;60.31
71291;DHT22;59073;51.994;4.448;2023-08-20T08:24:04;27.81;57.99
71291;DHT22;59073;51.994;4.448;2023-08-20T08:26:31;27.77;59.59
71291;DHT22;59073;51.994;4.448;2023-08-20T08:28:56;27.72;60.37
71291;DHT22;59073;51.994;4.448;2023-08-20T08:31:23;27.79;60.00
71291;DHT22;59073;51.994;4.448;2023-08-20T08:33:48;27.81;59.51
71291;DHT22;59073;51.994;4.448;2023-08-20T08:36:14;27.82;58.43
71291;DHT22;59073;51.994;4.448;2023-08-20T08:38:42;27.50;58.74
71291;DHT22;59073;51.994;4.448;2023-08-20T08:41:10;27.42;58.11
71291;DHT22;59073;51.994;4.448;2023-08-20T08:43:37;27.10;60.09
71291;DHT22;59073;51.994;4.448;2023-08-20T08:46:07;27.34;61.18
71291;DHT22;59073;51.994;4.448;2023-08-20T08:48:36;27.55;58.51
71291;DHT22;59073;51.994;4.448;2023-08-20T08:51:02;27.44;56.57
71291;DHT22;59073;51.994;4.448;2023-08-20T08:53:27;27.29;58.83
71291;DHT22;59073;51.994;4.448;2023-08-20T08:55:53;27.50;58.38
71291;DHT22;59073;51.994;4.448;2023-08-20T08:58:18;27.65;58.92
71291;DHT22;59073;51.994;4.448;2023-08-20T09:00:44;27.51;57.56
71291;DHT22;59073;51.994;4.448;2023-08-20T09:03:09;27.50;57.49
71291;DHT22;59073;51.994;4.448;2023-08-20T09:05:58;27.54;58.28
71291;DHT22;59073;51.994;4.448;2023-08-20T09:08:32;27.93;58.21
71291;DHT22;59073;51.994;4.448;2023-08-20T09:11:00;27.92;59.20
71291;DHT22;59073;51.994;4.448;2023-08-20T09:13:39;27.42;55.84
71291;DHT22;59073;51.994;4.448;2023-08-20T09:16:09;27.45;57.72
71291;DHT22;59073;51.994;4.448;2023-08-20T09:18:45;27.23;56.62
71291;DHT22;59073;51.994;4.448;2023-08-20T09:21:12;27.52;57.12
71291;DHT22;59073;51.994;4.448;2023-08-20T09:23:39;27.69;56.88
71291;DHT22;59073;51.994;4.448;2023-08-20T09:26:06;27.63;57.50
71291;DHT22;59073;51.994;4.448;2023-08-20T09:28:45;27.86;56.44
71291;DHT22;59073;51.994;4.448;2023-08-20T09:31:13;27.62;56.42
71291;DHT22;59073;51.994;4.448;2023-08-20T09:34:05;27.65;59.32
71291;DHT22;59073;51.994;4.448;2023-08-20T09:36:32;27.82;58.04
71291;DHT22;59073;51.994;4.448;2023-08-20T09:38:58;27.92;58.16
71291;DHT22;59073;51.994;4.448;2023-08-20T09:41:23;27.98;58.23
71291;DHT22;59073;51.994;4.448;2023-08-20T09:43:56;28.08;58.13
71291;DHT22;59073;51.994;4.448;2023-08-20T09:46:24;28.12;58.78
71291;DHT22;59073;51.994;4.448;2023-08-20T09:48:51;28.24;57.87
71291;DHT22;59073;51.994;4.448;2023-08-20T09:51:24;28.22;55.46
71291;DHT22;59073;51.994;4.448;2023-08-20T09:54:00;27.62;55.90
71291;DHT22;59073;51.994;4.448;2023-08-20T09:56:29;27.44;57.62
71291;DHT22;59073;51.994;4.448;2023-08-20T09:58:57;27.63;57.12
71291;DHT22;59073;51.994;4.448;2023-08-20T10:01:24;27.68;56.63
71291;DHT22;59073;51.994;4.448;2023-08-20T10:03:50;27.62;57.67
71291;DHT22;59073;51.994;4.448;2023-08-20T10:06:17;27.77;56.79
71291;DHT22;59073;51.994;4.448;2023-08-20T10:08:45;27.99;56.27
71291;DHT22;59073;51.994;4.448;2023-08-20T10:11:12;28.22;56.06
71291;DHT22;59073;51.994;4.448;2023-08-20T10:13:37;28.09;55.75
71291;DHT22;59073;51.994;4.448;2023-08-20T10:16:03;28.10;56.69
71291;DHT22;59073;51.994;4.448;2023-08-20T10:18:28;28.08;56.84
71291;DHT22;59073;51.994;4.448;2023-08-20T10:20:57;28.23;55.72
71291;DHT22;59073;51.994;4.448;2023-08-20T10:23:23;28.06;55.98
71291;DHT22;59073;51.994;4.448;2023-08-20T10:25:49;27.79;55.96
71291;DHT22;59073;51.994;4.448;2023-08-20T10:28:25;27.81;55.42
71291;DHT22;59073;51.994;4.448;2023-08-20T10:31:06;27.92;55.72
71291;DHT22;59073;51.994;4.448;2023-08-20T10:33:37;27.95;55.01
71291;DHT22;59073;51.994;4.448;2023-08-20T10:36:13;28.13;55.05
71291;DHT22;59073;51.994;4.448;2023-08-20T10:38:40;28.23;56.19
71291;DHT22;59073;51.994;4.448;2023-08-20T10:41:06;28.19;55.82
71291;DHT22;59073;51.994;4.448;2023-08-20T10:43:34;28.12;54.61
71291;DHT22;59073;51.994;4.448;2023-08-20T10:48:54;28.36;54.57
71291;DHT22;59073;51.994;4.448;2023-08-20T10:51:26;28.05;53.45
71291;DHT22;59073;51.994;4.448;2023-08-20T10:56:40;27.85;55.06
71291;DHT22;59073;51.994;4.448;2023-08-20T10:59:29;28.01;52.61
71291;DHT22;59073;51.994;4.448;2023-08-20T11:01:57;27.96;52.19
71291;DHT22;59073;51.994;4.448;2023-08-20T11:04:32;27.85;52.90
71291;DHT22;59073;51.994;4.448;2023-08-20T11:07:00;28.08;53.40
71291;DHT22;59073;51.994;4.448;2023-08-20T11:09:28;28.30;53.70
71291;DHT22;59073;51.994;4.448;2023-08-20T11:11:54;28.19;52.97
71291;DHT22;59073;51.994;4.448;2023-08-20T11:14:21;28.33;52.81
71291;DHT22;59073;51.994;4.448;2023-08-20T11:16:47;28.33;53.07
71291;DHT22;59073;51.994;4.448;2023-08-20T11:19:18;28.30;50.78
71291;DHT22;59073;51.994;4.448;2023-08-20T11:21:44;28.41;52.15
71291;DHT22;59073;51.994;4.448;2023-08-20T11:24:10;28.41;53.68
71291;DHT22;59073;51.994;4.448;2023-08-20T11:26:39;28.27;52.40
71291;DHT22;59073;51.994;4.448;2023-08-20T11:29:06;28.24;49.05
71291;DHT22;59073;51.994;4.448;2023-08-20T11:31:32;28.39;52.66
71291;DHT22;59073;51.994;4.448;2023-08-20T11:33:57;28.36;53.93
71291;DHT22;59073;51.994;4.448;2023-08-20T11:36:23;28.12;50.81
71291;DHT22;59073;51.994;4.448;2023-08-20T11:38:53;28.14;51.78
71291;DHT22;59073;51.994;4.448;2023-08-20T11:41:23;28.36;53.69
71291;DHT22;59073;51.994;4.448;2023-08-20T11:43:49;28.24;52.08
71291;DHT22;59073;51.994;4.448;2023-08-20T11:46:17;28.40;53.26
71291;DHT22;59073;51.994;4.448;2023-08-20T11:49:09;28.49;50.83
71291;DHT22;59073;51.994;4.448;2023-08-20T11:51:39;28.53;51.80
71291;DHT22;59073;51.994;4.448;2023-08-20T11:54:10;28.75;51.59
71291;DHT22;59073;51.994;4.448;2023-08-20T11:56:42;28.81;50.53
71291;DHT22;59073;51.994;4.448;2023-08-20T11:59:10;28.95;50.28
71291;DHT22;59073;51.994;4.448;2023-08-20T12:01:36;28.98;50.96
71291;DHT22;59073;51.994;4.448;2023-08-20T12:04:07;28.94;52.24
71291;DHT22;59073;51.994;4.448;2023-08-20T12:06:35;29.08;50.62
71291;DHT22;59073;51.994;4.448;2023-08-20T12:09:01;29.21;50.59
71291;DHT22;59073;51.994;4.448;2023-08-20T12:11:29;29.52;50.17
71291;DHT22;59073;51.994;4.448;2023-08-20T12:13:55;29.42;47.93
71291;DHT22;59073;51.994;4.448;2023-08-20T12:16:22;29.45;50.32
71291;DHT22;59073;51.994;4.448;2023-08-20T12:18:49;29.46;47.32
71291;DHT22;59073;51.994;4.448;2023-08-20T12:21:14;28.90;46.29
71291;DHT22;59073;51.994;4.448;2023-08-20T12:23:40;28.94;51.18
71291;DHT22;59073;51.994;4.448;2023-08-20T12:26:06;29.12;49.84
71291;DHT22;59073;51.994;4.448;2023-08-20T12:28:33;29.05;49.69
71291;DHT22;59073;51.994;4.448;2023-08-20T12:30:58;29.10;49.86
71291;DHT22;59073;51.994;4.448;2023-08-20T12:33:24;29.15;51.03
71291;DHT22;59073;51.994;4.448;2023-08-20T12:35:49;28.97;49.72
71291;DHT22;59073;51.994;4.448;2023-08-20T12:38:15;29.29;50.48
71291;DHT22;59073;51.994;4.448;2023-08-20T12:40:40;29.05;45.79
71291;DHT22;59073;51.994;4.448;2023-08-20T12:43:06;27.61;47.97
71291;DHT22;59073;51.994;4.448;2023-08-20T12:45:31;27.21;49.85
71291;DHT22;59073;51.994;4.448;2023-08-20T12:47:56;27.51;48.51
71291;DHT22;59073;51.994;4.448;2023-08-20T12:50:22;27.69;51.78
71291;DHT22;59073;51.994;4.448;2023-08-20T12:52:47;27.86;51.65
71291;DHT22;59073;51.994;4.448;2023-08-20T12:55:16;28.19;50.89
71291;DHT22;59073;51.994;4.448;2023-08-20T12:57:56;28.33;49.62
71291;DHT22;59073;51.994;4.448;2023-08-20T13:00:24;28.37;45.70
71291;DHT22;59073;51.994;4.448;2023-08-20T13:02:56;28.29;49.90
71291;DHT22;59073;51.994;4.448;2023-08-20T13:05:25;28.32;48.21
71291;DHT22;59073;51.994;4.448;2023-08-20T13:07:52;28.35;49.54
71291;DHT22;59073;51.994;4.448;2023-08-20T13:10:19;28.02;47.22
71291;DHT22;59073;51.994;4.448;2023-08-20T13:12:51;27.61;50.49
71291;DHT22;59073;51.994;4.448;2023-08-20T13:15:17;27.78;51.95
71291;DHT22;59073;51.994;4.448;2023-08-20T13:17:45;27.40;50.33
71291;DHT22;59073;51.994;4.448;2023-08-20T13:20:11;26.90;51.49
71291;DHT22;59073;51.994;4.448;2023-08-20T13:22:37;27.26;53.93
71291;DHT22;59073;51.994;4.448;2023-08-20T13:25:02;27.29;50.10
71291;DHT22;59073;51.994;4.448;2023-08-20T13:27:30;27.26;53.52
71291;DHT22;59073;51.994;4.448;2023-08-20T13:29:55;27.23;53.50
71291;DHT22;59073;51.994;4.448;2023-08-20T13:32:21;27.51;53.95
71291;DHT22;59073;51.994;4.448;2023-08-20T13:34:46;27.79;52.46
71291;DHT22;59073;51.994;4.448;2023-08-20T13:37:11;27.00;52.52
71291;DHT22;59073;51.994;4.448;2023-08-20T13:39:37;26.78;53.54
71291;DHT22;59073;51.994;4.448;2023-08-20T13:42:02;27.03;53.23
71291;DHT22;59073;51.994;4.448;2023-08-20T13:44:28;27.31;52.49
71291;DHT22;59073;51.994;4.448;2023-08-20T13:46:53;27.59;52.96
71291;DHT22;59073;51.994;4.448;2023-08-20T13:49:18;27.65;54.86
71291;DHT22;59073;51.994;4.448;2023-08-20T13:51:44;27.63;54.19
71291;DHT22;59073;51.994;4.448;2023-08-20T13:54:09;27.55;52.40
71291;DHT22;59073;51.994;4.448;2023-08-20T13:56:35;27.55;54.44
71291;DHT22;59073;51.994;4.448;2023-08-20T13:59:00;27.71;51.72
71291;DHT22;59073;51.994;4.448;2023-08-20T14:01:25;27.31;51.50
71291;DHT22;59073;51.994;4.448;2023-08-20T14:03:51;26.56;52.48
71291;DHT22;59073;51.994;4.448;2023-08-20T14:06:17;25.74;55.93
71291;DHT22;59073;51.994;4.448;2023-08-20T14:08:43;26.01;55.58
71291;DHT22;59073;51.994;4.448;2023-08-20T14:11:09;26.06;55.91
71291;DHT22;59073;51.994;4.448;2023-08-20T14:13:34;25.88;54.74
71291;DHT22;59073;51.994;4.448;2023-08-20T14:16:00;25.74;58.46
71291;DHT22;59073;51.994;4.448;2023-08-20T14:18:26;25.51;55.97
71291;DHT22;59073;51.994;4.448;2023-08-20T14:20:51;25.19;56.13
71291;DHT22;59073;51.994;4.448;2023-08-20T14:23:17;25.18;56.75
71291;DHT22;59073;51.994;4.448;2023-08-20T14:25:42;25.29;59.20
71291;DHT22;59073;51.994;4.448;2023-08-20T14:28:08;25.75;57.90
71291;DHT22;59073;51.994;4.448;2023-08-20T14:30:37;25.66;54.92
71291;DHT22;59073;51.994;4.448;2023-08-20T14:33:04;25.30;53.70
71291;DHT22;59073;51.994;4.448;2023-08-20T14:35:30;24.81;55.13
71291;DHT22;59073;51.994;4.448;2023-08-20T14:37:55;24.92;55.35
71291;DHT22;59073;51.994;4.448;2023-08-20T14:40:21;25.06;54.73
71291;DHT22;59073;51.994;4.448;2023-08-20T14:42:46;25.19;54.87
71291;DHT22;59073;51.994;4.448;2023-08-20T14:45:12;25.61;56.36
71291;DHT22;59073;51.994;4.448;2023-08-20T14:47:37;25.56;56.98
71291;DHT22;59073;51.994;4.448;2023-08-20T14:50:03;25.81;53.82
71291;DHT22;59073;51.994;4.448;2023-08-20T14:52:28;25.80;52.16
71291;DHT22;59073;51.994;4.448;2023-08-20T14:54:54;25.44;53.98
71291;DHT22;59073;51.994;4.448;2023-08-20T14:57:19;25.19;57.20
71291;DHT22;59073;51.994;4.448;2023-08-20T14:59:45;25.50;54.66
71291;DHT22;59073;51.994;4.448;2023-08-20T15:02:10;25.54;52.48
71291;DHT22;59073;51.994;4.448;2023-08-20T15:04:35;25.71;53.59
71291;DHT22;59073;51.994;4.448;2023-08-20T15:07:01;25.33;53.85
71291;DHT22;59073;51.994;4.448;2023-08-20T15:09:26;25.36;53.73
71291;DHT22;59073;51.994;4.448;2023-08-20T15:11:52;25.36;54.55
71291;DHT22;59073;51.994;4.448;2023-08-20T15:14:17;25.40;54.74
71291;DHT22;59073;51.994;4.448;2023-08-20T15:16:44;25.69;54.11
71291;DHT22;59073;51.994;4.448;2023-08-20T15:19:10;25.85;55.07
71291;DHT22;59073;51.994;4.448;2023-08-20T15:21:35;25.77;53.52
71291;DHT22;59073;51.994;4.448;2023-08-20T15:24:01;25.82;54.50
71291;DHT22;59073;51.994;4.448;2023-08-20T15:26:26;25.87;54.15
71291;DHT22;59073;51.994;4.448;2023-08-20T15:28:51;26.01;54.58
71291;DHT22;59073;51.994;4.448;2023-08-20T15:31:17;25.81;54.33
71291;DHT22;59073;51.994;4.448;2023-08-20T15:33:42;25.91;54.91
71291;DHT22;59073;51.994;4.448;2023-08-20T15:36:08;25.84;56.02
71291;DHT22;59073;51.994;4.448;2023-08-20T15:38:33;25.80;52.66